Airfield :
LOGIN :

Register | Disclaimer

   EN    FR    IT 

 










Legend :    VFR   Marginal VFR   IFR   Intensive IFR   Very Intensive IFR
Visi :
Ceiling :
>= 8 km
>= 3000ft
5 to 8 km
1000 to 3000 ft
1500m to 5 km
500 to 1000 ft
800 to 1500m
200 to 500 ft
< 800m
< 200 ft
Symbols :   Thunderstorms  Fog  Heavy snow  Heavy precipitations  Wind > 20 kt
SIGMETs :     Misc.  Thunderstorms  Icing  Turbulence  Mountain Waves  Volcanic Ashes







- Airport Elevation : 39 ft
- IATA code : ANR


EBAW - Anvers / Antwerpen Deurne

CURRENT METAR :
  • 200650Z 23008KT 200V260 9999 SCT015 BKN019 16/13 Q1011 NOSIG

EXPIRED METARs :
  • 200620Z 24011KT 210V270 9999 FEW013 BKN021 16/12 Q1011 NOSIG
  • 200550Z 22006KT 190V250 7000 BKN014 16/14 Q1011 TEMPO BKN012
  • 200520Z 23006KT 190V280 7000 BKN011 16/14 Q1011 TEMPO BKN010
  • 200450Z 23007KT 200V260 7000 FEW012 15/14 Q1011 TEMPO BKN012
  • 200420Z 23006KT 200V260 7000 FEW012 15/14 Q1010 TEMPO BKN012
  • 200350Z AUTO 23006KT 200V260 5000 // NCD 15/14 Q1010

TAF TAF EBAW
Valid from the 20 at 06:00 until the 20 at 15:00 UTC


200510Z 2006/2015 22007KT 8000 SCT009 BKN012
BECMG 2006/2008 BKN018
PROB30
TEMPO 2007/2011 4000 SHRA BKN018CB
No reported NOTAMs for that airfield.



MET'MAP, your aeronautical weather chart ! - Copyright ORBIFLY December 2007 - Disclaimer

ORBIFLY MET'MAP TEAM :

Programming & Development : Alexandra Zaïnal
Concept & Development : Baudouin d'Aumeries
Co-Development & Prog : Marc-Olivier Méhu
Technical & hardware support : Manuel Goepfert

Contact : metmap@orbifly.com




SOURCES & CREDITS :

   NOAA